sensor_id;sensor_type;location;lat;lon;timestamp;temperature;humidity
4103;DHT22;2065;49.790;9.620;2023-05-19T00:01:14;16.80;42.90
4103;DHT22;2065;49.790;9.620;2023-05-19T00:03:49;16.80;43.30
4103;DHT22;2065;49.790;9.620;2023-05-19T00:06:22;16.70;43.80
4103;DHT22;2065;49.790;9.620;2023-05-19T00:08:55;16.70;43.50
4103;DHT22;2065;49.790;9.620;2023-05-19T00:11:23;16.60;43.70
4103;DHT22;2065;49.790;9.620;2023-05-19T00:13:52;16.50;44.50
4103;DHT22;2065;49.790;9.620;2023-05-19T00:16:19;15.70;44.90
4103;DHT22;2065;49.790;9.620;2023-05-19T00:18:47;15.40;45.30
4103;DHT22;2065;49.790;9.620;2023-05-19T00:21:14;15.50;46.00
4103;DHT22;2065;49.790;9.620;2023-05-19T00:23:42;15.60;45.40
4103;DHT22;2065;49.790;9.620;2023-05-19T00:26:10;15.70;45.80
4103;DHT22;2065;49.790;9.620;2023-05-19T00:28:38;15.90;45.70
4103;DHT22;2065;49.790;9.620;2023-05-19T00:31:05;15.20;45.50
4103;DHT22;2065;49.790;9.620;2023-05-19T00:33:32;14.70;46.40
4103;DHT22;2065;49.790;9.620;2023-05-19T00:35:59;14.80;46.80
4103;DHT22;2065;49.790;9.620;2023-05-19T00:38:29;14.90;47.00
4103;DHT22;2065;49.790;9.620;2023-05-19T00:40:57;15.20;47.40
4103;DHT22;2065;49.790;9.620;2023-05-19T00:43:25;15.30;46.30
4103;DHT22;2065;49.790;9.620;2023-05-19T00:45:52;15.50;46.10
4103;DHT22;2065;49.790;9.620;2023-05-19T00:48:19;15.60;45.60
4103;DHT22;2065;49.790;9.620;2023-05-19T00:50:47;15.70;45.50
4103;DHT22;2065;49.790;9.620;2023-05-19T00:53:16;15.70;45.30
4103;DHT22;2065;49.790;9.620;2023-05-19T00:55:44;15.60;45.20
4103;DHT22;2065;49.790;9.620;2023-05-19T00:58:13;15.40;45.40
4103;DHT22;2065;49.790;9.620;2023-05-19T01:00:40;15.50;45.50
4103;DHT22;2065;49.790;9.620;2023-05-19T01:03:08;15.50;45.70
4103;DHT22;2065;49.790;9.620;2023-05-19T01:05:38;15.60;45.70
4103;DHT22;2065;49.790;9.620;2023-05-19T01:08:06;15.60;45.10
4103;DHT22;2065;49.790;9.620;2023-05-19T01:10:33;15.40;45.40
4103;DHT22;2065;49.790;9.620;2023-05-19T01:13:01;15.40;45.70
4103;DHT22;2065;49.790;9.620;2023-05-19T01:15:32;15.40;44.70
4103;DHT22;2065;49.790;9.620;2023-05-19T01:18:05;15.30;45.30
4103;DHT22;2065;49.790;9.620;2023-05-19T01:20:40;15.20;45.60
4103;DHT22;2065;49.790;9.620;2023-05-19T01:23:27;15.20;44.60
4103;DHT22;2065;49.790;9.620;2023-05-19T01:29:27;15.00;44.40
4103;DHT22;2065;49.790;9.620;2023-05-19T01:32:00;14.90;45.40
4103;DHT22;2065;49.790;9.620;2023-05-19T01:34:30;15.00;45.80
4103;DHT22;2065;49.790;9.620;2023-05-19T01:36:57;15.10;46.50
4103;DHT22;2065;49.790;9.620;2023-05-19T01:39:27;15.20;45.90
4103;DHT22;2065;49.790;9.620;2023-05-19T01:41:54;15.20;45.70
4103;DHT22;2065;49.790;9.620;2023-05-19T01:44:22;15.20;45.20
4103;DHT22;2065;49.790;9.620;2023-05-19T01:46:50;15.20;45.60
4103;DHT22;2065;49.790;9.620;2023-05-19T01:49:18;15.20;45.00
4103;DHT22;2065;49.790;9.620;2023-05-19T01:51:45;15.10;45.00
4103;DHT22;2065;49.790;9.620;2023-05-19T01:54:12;14.90;44.60
4103;DHT22;2065;49.790;9.620;2023-05-19T01:56:44;14.80;45.00
4103;DHT22;2065;49.790;9.620;2023-05-19T01:59:22;14.80;45.30
4103;DHT22;2065;49.790;9.620;2023-05-19T02:01:56;14.80;44.80
4103;DHT22;2065;49.790;9.620;2023-05-19T02:04:36;14.70;44.90
4103;DHT22;2065;49.790;9.620;2023-05-19T02:07:14;14.70;45.60
4103;DHT22;2065;49.790;9.620;2023-05-19T02:09:49;14.70;46.30
4103;DHT22;2065;49.790;9.620;2023-05-19T02:12:19;14.80;46.50
4103;DHT22;2065;49.790;9.620;2023-05-19T02:14:54;14.80;46.50
4103;DHT22;2065;49.790;9.620;2023-05-19T02:17:26;14.80;46.40
4103;DHT22;2065;49.790;9.620;2023-05-19T02:19:55;14.80;46.80
4103;DHT22;2065;49.790;9.620;2023-05-19T02:22:22;14.80;46.80
4103;DHT22;2065;49.790;9.620;2023-05-19T02:24:49;14.80;46.80
4103;DHT22;2065;49.790;9.620;2023-05-19T02:27:16;14.80;46.80
4103;DHT22;2065;49.790;9.620;2023-05-19T02:29:43;14.70;46.90
4103;DHT22;2065;49.790;9.620;2023-05-19T02:32:10;14.70;46.80
4103;DHT22;2065;49.790;9.620;2023-05-19T02:34:39;14.70;46.80
4103;DHT22;2065;49.790;9.620;2023-05-19T02:37:08;14.70;46.60
4103;DHT22;2065;49.790;9.620;2023-05-19T02:39:35;14.70;46.60
4103;DHT22;2065;49.790;9.620;2023-05-19T02:42:02;14.70;46.80
4103;DHT22;2065;49.790;9.620;2023-05-19T02:44:29;14.70;46.90
4103;DHT22;2065;49.790;9.620;2023-05-19T02:46:56;14.70;47.10
4103;DHT22;2065;49.790;9.620;2023-05-19T02:49:24;14.70;47.70
4103;DHT22;2065;49.790;9.620;2023-05-19T02:51:51;14.70;47.60
4103;DHT22;2065;49.790;9.620;2023-05-19T02:54:19;14.60;47.50
4103;DHT22;2065;49.790;9.620;2023-05-19T02:56:46;14.60;47.30
4103;DHT22;2065;49.790;9.620;2023-05-19T02:59:13;14.50;47.40
4103;DHT22;2065;49.790;9.620;2023-05-19T03:01:40;14.50;47.20
4103;DHT22;2065;49.790;9.620;2023-05-19T03:04:07;14.60;47.30
4103;DHT22;2065;49.790;9.620;2023-05-19T03:06:34;14.50;47.30
4103;DHT22;2065;49.790;9.620;2023-05-19T03:09:01;14.50;47.10
4103;DHT22;2065;49.790;9.620;2023-05-19T03:11:29;14.50;47.40
4103;DHT22;2065;49.790;9.620;2023-05-19T03:13:57;14.40;47.50
4103;DHT22;2065;49.790;9.620;2023-05-19T03:16:24;14.40;48.00
4103;DHT22;2065;49.790;9.620;2023-05-19T03:18:52;14.40;48.00
4103;DHT22;2065;49.790;9.620;2023-05-19T03:21:20;14.30;48.10
4103;DHT22;2065;49.790;9.620;2023-05-19T03:23:47;14.30;48.10
4103;DHT22;2065;49.790;9.620;2023-05-19T03:26:14;14.30;48.40
4103;DHT22;2065;49.790;9.620;2023-05-19T03:28:42;14.30;48.90
4103;DHT22;2065;49.790;9.620;2023-05-19T03:31:09;14.30;49.20
4103;DHT22;2065;49.790;9.620;2023-05-19T03:33:37;14.30;49.40
4103;DHT22;2065;49.790;9.620;2023-05-19T03:36:05;14.30;49.40
4103;DHT22;2065;49.790;9.620;2023-05-19T03:38:36;14.30;49.30
4103;DHT22;2065;49.790;9.620;2023-05-19T03:41:03;14.30;49.10
4103;DHT22;2065;49.790;9.620;2023-05-19T03:43:30;14.30;49.00
4103;DHT22;2065;49.790;9.620;2023-05-19T03:46:03;14.20;49.10
4103;DHT22;2065;49.790;9.620;2023-05-19T03:48:53;14.20;49.10
4103;DHT22;2065;49.790;9.620;2023-05-19T03:51:29;14.10;49.30
4103;DHT22;2065;49.790;9.620;2023-05-19T03:54:04;14.10;49.30
4103;DHT22;2065;49.790;9.620;2023-05-19T03:56:31;14.10;49.50
4103;DHT22;2065;49.790;9.620;2023-05-19T03:58:58;14.10;50.10
4103;DHT22;2065;49.790;9.620;2023-05-19T04:01:27;14.10;50.40
4103;DHT22;2065;49.790;9.620;2023-05-19T04:03:54;14.10;50.70
4103;DHT22;2065;49.790;9.620;2023-05-19T04:06:22;14.20;50.60
4103;DHT22;2065;49.790;9.620;2023-05-19T04:08:49;14.20;50.80
4103;DHT22;2065;49.790;9.620;2023-05-19T04:11:16;14.30;50.90
4103;DHT22;2065;49.790;9.620;2023-05-19T04:13:44;14.30;50.60
4103;DHT22;2065;49.790;9.620;2023-05-19T04:16:11;14.30;50.20
4103;DHT22;2065;49.790;9.620;2023-05-19T04:18:40;14.30;50.20
4103;DHT22;2065;49.790;9.620;2023-05-19T04:21:07;14.30;50.30
4103;DHT22;2065;49.790;9.620;2023-05-19T04:23:34;14.30;50.20
4103;DHT22;2065;49.790;9.620;2023-05-19T04:26:01;14.30;50.30
4103;DHT22;2065;49.790;9.620;2023-05-19T04:28:28;14.40;50.50
4103;DHT22;2065;49.790;9.620;2023-05-19T04:30:55;14.40;50.70
4103;DHT22;2065;49.790;9.620;2023-05-19T04:33:25;14.40;51.10
4103;DHT22;2065;49.790;9.620;2023-05-19T04:35:55;14.50;50.90
4103;DHT22;2065;49.790;9.620;2023-05-19T04:38:23;14.50;51.00
4103;DHT22;2065;49.790;9.620;2023-05-19T04:40:50;14.40;51.10
4103;DHT22;2065;49.790;9.620;2023-05-19T04:43:17;14.50;51.10
4103;DHT22;2065;49.790;9.620;2023-05-19T04:45:46;14.50;50.80
4103;DHT22;2065;49.790;9.620;2023-05-19T04:48:15;14.50;50.90
4103;DHT22;2065;49.790;9.620;2023-05-19T04:50:42;14.60;51.40
4103;DHT22;2065;49.790;9.620;2023-05-19T04:53:10;14.60;51.30
4103;DHT22;2065;49.790;9.620;2023-05-19T04:55:37;14.70;51.20
4103;DHT22;2065;49.790;9.620;2023-05-19T04:58:04;14.80;51.10
4103;DHT22;2065;49.790;9.620;2023-05-19T05:00:32;14.90;51.10
4103;DHT22;2065;49.790;9.620;2023-05-19T05:03:03;14.90;50.90
4103;DHT22;2065;49.790;9.620;2023-05-19T05:05:32;14.90;51.30
4103;DHT22;2065;49.790;9.620;2023-05-19T05:07:59;14.90;51.60
4103;DHT22;2065;49.790;9.620;2023-05-19T05:10:31;14.90;51.60
4103;DHT22;2065;49.790;9.620;2023-05-19T05:12:58;14.80;51.90
4103;DHT22;2065;49.790;9.620;2023-05-19T05:15:26;14.90;51.90
4103;DHT22;2065;49.790;9.620;2023-05-19T05:17:55;15.00;52.00
4103;DHT22;2065;49.790;9.620;2023-05-19T05:20:24;15.10;51.70
4103;DHT22;2065;49.790;9.620;2023-05-19T05:22:52;15.10;51.70
4103;DHT22;2065;49.790;9.620;2023-05-19T05:25:21;15.00;52.00
4103;DHT22;2065;49.790;9.620;2023-05-19T05:27:49;14.90;50.50
4103;DHT22;2065;49.790;9.620;2023-05-19T05:30:18;15.00;50.30
4103;DHT22;2065;49.790;9.620;2023-05-19T05:32:45;15.10;49.80
4103;DHT22;2065;49.790;9.620;2023-05-19T05:35:27;15.20;49.90
4103;DHT22;2065;49.790;9.620;2023-05-19T05:37:53;15.30;49.90
4103;DHT22;2065;49.790;9.620;2023-05-19T05:40:21;15.40;49.10
4103;DHT22;2065;49.790;9.620;2023-05-19T05:42:48;15.30;49.20
4103;DHT22;2065;49.790;9.620;2023-05-19T05:45:17;15.30;49.50
4103;DHT22;2065;49.790;9.620;2023-05-19T05:47:45;15.40;49.90
4103;DHT22;2065;49.790;9.620;2023-05-19T05:50:13;15.40;49.60
4103;DHT22;2065;49.790;9.620;2023-05-19T05:52:41;15.50;49.50
4103;DHT22;2065;49.790;9.620;2023-05-19T05:55:13;15.40;49.20
4103;DHT22;2065;49.790;9.620;2023-05-19T05:57:40;15.40;49.50
4103;DHT22;2065;49.790;9.620;2023-05-19T06:00:09;15.40;49.60
4103;DHT22;2065;49.790;9.620;2023-05-19T06:02:50;15.50;49.80
4103;DHT22;2065;49.790;9.620;2023-05-19T06:05:19;15.80;49.70
4103;DHT22;2065;49.790;9.620;2023-05-19T06:07:47;15.90;49.40
4103;DHT22;2065;49.790;9.620;2023-05-19T06:10:19;15.90;48.60
4103;DHT22;2065;49.790;9.620;2023-05-19T06:12:48;15.70;48.70
4103;DHT22;2065;49.790;9.620;2023-05-19T06:15:15;15.60;49.40
4103;DHT22;2065;49.790;9.620;2023-05-19T06:17:51;15.80;49.50
4103;DHT22;2065;49.790;9.620;2023-05-19T06:20:19;16.10;49.20
4103;DHT22;2065;49.790;9.620;2023-05-19T06:22:46;16.30;48.80
4103;DHT22;2065;49.790;9.620;2023-05-19T06:25:15;16.20;48.90
4103;DHT22;2065;49.790;9.620;2023-05-19T06:27:43;16.10;48.90
4103;DHT22;2065;49.790;9.620;2023-05-19T06:30:11;16.20;49.40
4103;DHT22;2065;49.790;9.620;2023-05-19T06:32:48;16.40;49.00
4103;DHT22;2065;49.790;9.620;2023-05-19T06:35:17;16.70;48.60
4103;DHT22;2065;49.790;9.620;2023-05-19T06:37:44;16.80;47.90
4103;DHT22;2065;49.790;9.620;2023-05-19T06:40:12;16.80;47.60
4103;DHT22;2065;49.790;9.620;2023-05-19T06:42:41;17.00;48.30
4103;DHT22;2065;49.790;9.620;2023-05-19T06:45:20;17.20;47.10
4103;DHT22;2065;49.790;9.620;2023-05-19T06:47:49;17.30;47.50
4103;DHT22;2065;49.790;9.620;2023-05-19T06:50:18;17.20;46.90
4103;DHT22;2065;49.790;9.620;2023-05-19T06:52:47;17.40;46.60
4103;DHT22;2065;49.790;9.620;2023-05-19T06:55:15;17.50;46.70
4103;DHT22;2065;49.790;9.620;2023-05-19T06:57:42;17.60;46.30
4103;DHT22;2065;49.790;9.620;2023-05-19T07:00:11;17.70;45.70
4103;DHT22;2065;49.790;9.620;2023-05-19T07:02:41;17.60;45.00
4103;DHT22;2065;49.790;9.620;2023-05-19T07:05:08;17.40;45.90
4103;DHT22;2065;49.790;9.620;2023-05-19T07:07:37;17.50;45.80
4103;DHT22;2065;49.790;9.620;2023-05-19T07:10:08;17.40;44.90
4103;DHT22;2065;49.790;9.620;2023-05-19T07:12:35;17.40;45.10
4103;DHT22;2065;49.790;9.620;2023-05-19T07:15:04;17.40;44.30
4103;DHT22;2065;49.790;9.620;2023-05-19T07:17:31;17.40;43.90
4103;DHT22;2065;49.790;9.620;2023-05-19T07:19:58;17.20;44.20
4103;DHT22;2065;49.790;9.620;2023-05-19T07:22:26;17.20;44.40
4103;DHT22;2065;49.790;9.620;2023-05-19T07:24:55;17.40;43.60
4103;DHT22;2065;49.790;9.620;2023-05-19T07:27:22;17.60;44.00
4103;DHT22;2065;49.790;9.620;2023-05-19T07:29:49;17.70;44.10
4103;DHT22;2065;49.790;9.620;2023-05-19T07:32:16;17.80;43.90
4103;DHT22;2065;49.790;9.620;2023-05-19T07:34:43;18.00;43.80
4103;DHT22;2065;49.790;9.620;2023-05-19T07:37:10;18.10;42.90
4103;DHT22;2065;49.790;9.620;2023-05-19T07:39:37;18.20;43.90
4103;DHT22;2065;49.790;9.620;2023-05-19T07:42:05;18.40;43.30
4103;DHT22;2065;49.790;9.620;2023-05-19T07:44:32;18.40;43.00
4103;DHT22;2065;49.790;9.620;2023-05-19T07:47:00;18.30;42.90
4103;DHT22;2065;49.790;9.620;2023-05-19T07:49:27;18.20;42.40
4103;DHT22;2065;49.790;9.620;2023-05-19T07:51:54;18.20;43.30
4103;DHT22;2065;49.790;9.620;2023-05-19T07:54:21;18.20;42.00
4103;DHT22;2065;49.790;9.620;2023-05-19T07:56:48;18.50;42.40
4103;DHT22;2065;49.790;9.620;2023-05-19T07:59:16;18.70;41.50
4103;DHT22;2065;49.790;9.620;2023-05-19T08:01:43;18.80;41.60
4103;DHT22;2065;49.790;9.620;2023-05-19T08:04:10;18.70;41.10
4103;DHT22;2065;49.790;9.620;2023-05-19T08:06:37;18.70;42.40
4103;DHT22;2065;49.790;9.620;2023-05-19T08:09:07;18.90;41.80
4103;DHT22;2065;49.790;9.620;2023-05-19T08:11:34;19.00;41.40
4103;DHT22;2065;49.790;9.620;2023-05-19T08:14:01;19.20;40.90
4103;DHT22;2065;49.790;9.620;2023-05-19T08:16:30;19.40;41.00
4103;DHT22;2065;49.790;9.620;2023-05-19T08:18:57;19.40;40.10
4103;DHT22;2065;49.790;9.620;2023-05-19T08:21:27;19.20;40.40
4103;DHT22;2065;49.790;9.620;2023-05-19T08:23:54;19.40;41.40
4103;DHT22;2065;49.790;9.620;2023-05-19T08:26:21;19.20;40.30
4103;DHT22;2065;49.790;9.620;2023-05-19T08:28:48;19.20;41.10
4103;DHT22;2065;49.790;9.620;2023-05-19T08:31:15;19.40;41.40
4103;DHT22;2065;49.790;9.620;2023-05-19T08:33:44;19.50;40.50
4103;DHT22;2065;49.790;9.620;2023-05-19T08:36:11;19.80;40.70
4103;DHT22;2065;49.790;9.620;2023-05-19T08:38:38;20.00;39.70
4103;DHT22;2065;49.790;9.620;2023-05-19T08:41:05;20.20;39.60
4103;DHT22;2065;49.790;9.620;2023-05-19T08:43:32;20.20;39.40
4103;DHT22;2065;49.790;9.620;2023-05-19T08:45:59;20.30;39.90
4103;DHT22;2065;49.790;9.620;2023-05-19T08:48:28;20.40;38.60
4103;DHT22;2065;49.790;9.620;2023-05-19T08:51:10;20.40;38.90
4103;DHT22;2065;49.790;9.620;2023-05-19T08:53:40;20.30;39.80
4103;DHT22;2065;49.790;9.620;2023-05-19T08:56:12;20.40;39.80
4103;DHT22;2065;49.790;9.620;2023-05-19T08:58:41;20.50;39.30
4103;DHT22;2065;49.790;9.620;2023-05-19T09:01:09;20.80;39.20
4103;DHT22;2065;49.790;9.620;2023-05-19T09:03:36;20.90;38.50
4103;DHT22;2065;49.790;9.620;2023-05-19T09:06:06;20.90;39.10
4103;DHT22;2065;49.790;9.620;2023-05-19T09:08:34;20.50;37.80
4103;DHT22;2065;49.790;9.620;2023-05-19T09:11:01;20.00;39.10
4103;DHT22;2065;49.790;9.620;2023-05-19T09:13:28;20.20;39.10
4103;DHT22;2065;49.790;9.620;2023-05-19T09:15:56;20.50;39.80
4103;DHT22;2065;49.790;9.620;2023-05-19T09:18:24;20.60;39.50
4103;DHT22;2065;49.790;9.620;2023-05-19T09:20:56;20.60;39.10
4103;DHT22;2065;49.790;9.620;2023-05-19T09:23:28;20.80;39.20
4103;DHT22;2065;49.790;9.620;2023-05-19T09:25:56;20.90;38.30
4103;DHT22;2065;49.790;9.620;2023-05-19T09:28:25;21.10;38.80
4103;DHT22;2065;49.790;9.620;2023-05-19T09:31:03;20.80;38.20
4103;DHT22;2065;49.790;9.620;2023-05-19T09:33:32;20.80;38.20
4103;DHT22;2065;49.790;9.620;2023-05-19T09:36:00;20.60;39.50
4103;DHT22;2065;49.790;9.620;2023-05-19T09:38:29;20.80;39.20
4103;DHT22;2065;49.790;9.620;2023-05-19T09:40:57;20.90;38.70
4103;DHT22;2065;49.790;9.620;2023-05-19T09:43:26;21.10;37.50
4103;DHT22;2065;49.790;9.620;2023-05-19T09:45:54;21.30;37.50
4103;DHT22;2065;49.790;9.620;2023-05-19T09:48:21;21.10;36.60
4103;DHT22;2065;49.790;9.620;2023-05-19T09:50:52;21.40;37.90
4103;DHT22;2065;49.790;9.620;2023-05-19T09:53:20;21.60;36.90
4103;DHT22;2065;49.790;9.620;2023-05-19T09:55:48;21.70;36.90
4103;DHT22;2065;49.790;9.620;2023-05-19T09:58:17;21.70;36.90
4103;DHT22;2065;49.790;9.620;2023-05-19T10:00:45;21.60;37.10
4103;DHT22;2065;49.790;9.620;2023-05-19T10:03:13;21.50;38.30
4103;DHT22;2065;49.790;9.620;2023-05-19T10:05:42;21.60;38.70
4103;DHT22;2065;49.790;9.620;2023-05-19T10:08:11;21.50;38.10
4103;DHT22;2065;49.790;9.620;2023-05-19T10:10:38;21.60;37.90
4103;DHT22;2065;49.790;9.620;2023-05-19T10:13:06;21.80;37.20
4103;DHT22;2065;49.790;9.620;2023-05-19T10:15:34;21.60;36.70
4103;DHT22;2065;49.790;9.620;2023-05-19T10:18:02;21.60;37.30
4103;DHT22;2065;49.790;9.620;2023-05-19T10:20:29;21.80;37.50
4103;DHT22;2065;49.790;9.620;2023-05-19T10:22:59;22.00;37.60
4103;DHT22;2065;49.790;9.620;2023-05-19T10:25:28;22.10;37.00
4103;DHT22;2065;49.790;9.620;2023-05-19T10:28:00;22.00;36.30
4103;DHT22;2065;49.790;9.620;2023-05-19T10:30:31;22.00;37.40
4103;DHT22;2065;49.790;9.620;2023-05-19T10:32:59;22.00;37.50
4103;DHT22;2065;49.790;9.620;2023-05-19T10:36:01;22.00;36.10
4103;DHT22;2065;49.790;9.620;2023-05-19T10:38:44;21.70;37.50
4103;DHT22;2065;49.790;9.620;2023-05-19T10:41:21;21.70;35.80
4103;DHT22;2065;49.790;9.620;2023-05-19T10:43:55;21.70;36.90
4103;DHT22;2065;49.790;9.620;2023-05-19T10:46:26;21.70;36.90
4103;DHT22;2065;49.790;9.620;2023-05-19T10:48:54;21.80;37.20
4103;DHT22;2065;49.790;9.620;2023-05-19T10:51:27;21.80;35.70
4103;DHT22;2065;49.790;9.620;2023-05-19T10:53:56;21.70;35.60
4103;DHT22;2065;49.790;9.620;2023-05-19T10:56:27;21.60;36.90
4103;DHT22;2065;49.790;9.620;2023-05-19T10:58:57;21.60;36.70
4103;DHT22;2065;49.790;9.620;2023-05-19T11:01:31;21.90;38.40
4103;DHT22;2065;49.790;9.620;2023-05-19T11:04:04;22.00;36.20
4103;DHT22;2065;49.790;9.620;2023-05-19T11:06:32;22.20;37.10
4103;DHT22;2065;49.790;9.620;2023-05-19T11:09:01;22.30;35.80
4103;DHT22;2065;49.790;9.620;2023-05-19T11:11:45;22.20;36.30
4103;DHT22;2065;49.790;9.620;2023-05-19T11:14:14;22.10;36.70
4103;DHT22;2065;49.790;9.620;2023-05-19T11:16:45;22.00;36.10
4103;DHT22;2065;49.790;9.620;2023-05-19T11:19:17;22.00;37.10
4103;DHT22;2065;49.790;9.620;2023-05-19T11:21:49;22.30;36.90
4103;DHT22;2065;49.790;9.620;2023-05-19T11:24:33;22.20;37.30
4103;DHT22;2065;49.790;9.620;2023-05-19T11:27:25;22.20;37.60
4103;DHT22;2065;49.790;9.620;2023-05-19T11:29:53;22.00;36.40
4103;DHT22;2065;49.790;9.620;2023-05-19T11:32:25;21.70;38.30
4103;DHT22;2065;49.790;9.620;2023-05-19T11:34:54;21.90;38.50
4103;DHT22;2065;49.790;9.620;2023-05-19T11:37:21;22.20;38.30
4103;DHT22;2065;49.790;9.620;2023-05-19T11:39:48;22.20;37.20
4103;DHT22;2065;49.790;9.620;2023-05-19T11:42:15;22.30;37.80
4103;DHT22;2065;49.790;9.620;2023-05-19T11:44:43;22.50;37.40
4103;DHT22;2065;49.790;9.620;2023-05-19T11:47:11;22.30;37.40
4103;DHT22;2065;49.790;9.620;2023-05-19T11:49:43;22.20;38.30
4103;DHT22;2065;49.790;9.620;2023-05-19T11:52:10;22.40;37.20
4103;DHT22;2065;49.790;9.620;2023-05-19T11:54:37;22.50;37.10
4103;DHT22;2065;49.790;9.620;2023-05-19T11:57:07;22.70;37.40
4103;DHT22;2065;49.790;9.620;2023-05-19T11:59:35;22.70;37.20
4103;DHT22;2065;49.790;9.620;2023-05-19T12:02:14;22.70;37.70
4103;DHT22;2065;49.790;9.620;2023-05-19T12:04:43;22.80;38.40
4103;DHT22;2065;49.790;9.620;2023-05-19T12:07:10;22.90;37.00
4103;DHT22;2065;49.790;9.620;2023-05-19T12:09:38;22.60;36.90
4103;DHT22;2065;49.790;9.620;2023-05-19T12:12:05;22.30;38.30
4103;DHT22;2065;49.790;9.620;2023-05-19T12:14:33;22.40;36.80
4103;DHT22;2065;49.790;9.620;2023-05-19T12:17:09;22.40;38.50
4103;DHT22;2065;49.790;9.620;2023-05-19T12:19:36;22.60;37.60
4103;DHT22;2065;49.790;9.620;2023-05-19T12:22:06;22.70;37.20
4103;DHT22;2065;49.790;9.620;2023-05-19T12:24:34;22.90;37.00
4103;DHT22;2065;49.790;9.620;2023-05-19T12:27:08;22.80;36.90
4103;DHT22;2065;49.790;9.620;2023-05-19T12:29:37;22.80;37.70
4103;DHT22;2065;49.790;9.620;2023-05-19T12:32:06;22.70;37.50
4103;DHT22;2065;49.790;9.620;2023-05-19T12:34:35;22.70;37.40
4103;DHT22;2065;49.790;9.620;2023-05-19T12:37:02;22.70;37.40
4103;DHT22;2065;49.790;9.620;2023-05-19T12:39:31;23.00;37.70
4103;DHT22;2065;49.790;9.620;2023-05-19T12:42:02;23.10;36.40
4103;DHT22;2065;49.790;9.620;2023-05-19T12:44:29;23.10;36.30
4103;DHT22;2065;49.790;9.620;2023-05-19T12:46:57;23.20;35.90
4103;DHT22;2065;49.790;9.620;2023-05-19T12:49:24;23.20;36.70
4103;DHT22;2065;49.790;9.620;2023-05-19T12:51:51;23.10;36.50
4103;DHT22;2065;49.790;9.620;2023-05-19T12:54:19;23.20;37.30
4103;DHT22;2065;49.790;9.620;2023-05-19T12:56:51;23.30;36.10
4103;DHT22;2065;49.790;9.620;2023-05-19T12:59:22;23.30;35.30
4103;DHT22;2065;49.790;9.620;2023-05-19T13:01:56;23.30;36.20
4103;DHT22;2065;49.790;9.620;2023-05-19T13:04:23;23.50;36.00
4103;DHT22;2065;49.790;9.620;2023-05-19T13:06:51;23.90;36.30
4103;DHT22;2065;49.790;9.620;2023-05-19T13:09:18;24.00;34.50
4103;DHT22;2065;49.790;9.620;2023-05-19T13:11:46;23.80;34.30
4103;DHT22;2065;49.790;9.620;2023-05-19T13:14:35;23.80;35.40
4103;DHT22;2065;49.790;9.620;2023-05-19T13:17:23;23.80;34.90
4103;DHT22;2065;49.790;9.620;2023-05-19T13:19:51;23.40;34.60
4103;DHT22;2065;49.790;9.620;2023-05-19T13:22:18;23.10;35.50
4103;DHT22;2065;49.790;9.620;2023-05-19T13:24:45;22.80;33.90
4103;DHT22;2065;49.790;9.620;2023-05-19T13:27:12;22.90;35.20
4103;DHT22;2065;49.790;9.620;2023-05-19T13:29:41;23.00;36.00
4103;DHT22;2065;49.790;9.620;2023-05-19T13:32:07;23.10;34.80
4103;DHT22;2065;49.790;9.620;2023-05-19T13:34:34;22.80;34.40
4103;DHT22;2065;49.790;9.620;2023-05-19T13:37:01;22.80;34.50
4103;DHT22;2065;49.790;9.620;2023-05-19T13:39:28;22.90;35.10
4103;DHT22;2065;49.790;9.620;2023-05-19T13:41:57;23.10;34.80
4103;DHT22;2065;49.790;9.620;2023-05-19T13:44:24;23.40;35.80
4103;DHT22;2065;49.790;9.620;2023-05-19T13:46:52;23.70;33.90
4103;DHT22;2065;49.790;9.620;2023-05-19T13:49:19;23.50;34.00
4103;DHT22;2065;49.790;9.620;2023-05-19T13:51:46;23.70;35.20
4103;DHT22;2065;49.790;9.620;2023-05-19T13:54:13;24.00;34.10
4103;DHT22;2065;49.790;9.620;2023-05-19T13:56:40;23.80;33.90
4103;DHT22;2065;49.790;9.620;2023-05-19T13:59:07;23.80;32.70
4103;DHT22;2065;49.790;9.620;2023-05-19T14:01:34;23.60;32.50
4103;DHT22;2065;49.790;9.620;2023-05-19T14:04:03;23.50;33.50
4103;DHT22;2065;49.790;9.620;2023-05-19T14:06:30;23.30;32.70
4103;DHT22;2065;49.790;9.620;2023-05-19T14:08:57;23.30;33.30
4103;DHT22;2065;49.790;9.620;2023-05-19T14:11:24;23.20;33.30
4103;DHT22;2065;49.790;9.620;2023-05-19T14:13:51;23.50;34.00
4103;DHT22;2065;49.790;9.620;2023-05-19T14:16:18;23.80;33.00
4103;DHT22;2065;49.790;9.620;2023-05-19T14:18:46;23.80;33.20
4103;DHT22;2065;49.790;9.620;2023-05-19T14:21:14;23.70;32.50
4103;DHT22;2065;49.790;9.620;2023-05-19T14:23:41;23.70;33.10
4103;DHT22;2065;49.790;9.620;2023-05-19T14:26:08;23.70;33.10
4103;DHT22;2065;49.790;9.620;2023-05-19T14:28:35;23.60;33.00
4103;DHT22;2065;49.790;9.620;2023-05-19T14:31:03;23.50;33.30
4103;DHT22;2065;49.790;9.620;2023-05-19T14:33:30;23.60;33.30
4103;DHT22;2065;49.790;9.620;2023-05-19T14:35:57;23.60;32.10
4103;DHT22;2065;49.790;9.620;2023-05-19T14:38:26;23.30;33.20
4103;DHT22;2065;49.790;9.620;2023-05-19T14:40:53;23.50;33.30
4103;DHT22;2065;49.790;9.620;2023-05-19T14:43:20;23.40;33.30
4103;DHT22;2065;49.790;9.620;2023-05-19T14:45:47;23.50;33.20
4103;DHT22;2065;49.790;9.620;2023-05-19T14:48:14;23.80;32.90
4103;DHT22;2065;49.790;9.620;2023-05-19T14:50:41;23.60;32.50
4103;DHT22;2065;49.790;9.620;2023-05-19T14:53:08;23.50;33.60
4103;DHT22;2065;49.790;9.620;2023-05-19T14:55:37;23.50;34.10
4103;DHT22;2065;49.790;9.620;2023-05-19T14:58:04;23.40;33.60
4103;DHT22;2065;49.790;9.620;2023-05-19T15:00:31;23.50;33.10
4103;DHT22;2065;49.790;9.620;2023-05-19T15:02:58;23.50;33.70
4103;DHT22;2065;49.790;9.620;2023-05-19T15:05:25;23.60;34.20
4103;DHT22;2065;49.790;9.620;2023-05-19T15:07:52;23.60;33.70
4103;DHT22;2065;49.790;9.620;2023-05-19T15:10:19;23.60;33.50
4103;DHT22;2065;49.790;9.620;2023-05-19T15:12:48;23.70;33.40
4103;DHT22;2065;49.790;9.620;2023-05-19T15:15:15;23.60;32.70
4103;DHT22;2065;49.790;9.620;2023-05-19T15:17:42;23.70;33.20
4103;DHT22;2065;49.790;9.620;2023-05-19T15:20:11;23.60;33.30
4103;DHT22;2065;49.790;9.620;2023-05-19T15:22:38;23.50;33.40
4103;DHT22;2065;49.790;9.620;2023-05-19T15:25:06;23.40;32.50
4103;DHT22;2065;49.790;9.620;2023-05-19T15:27:33;23.30;33.50
4103;DHT22;2065;49.790;9.620;2023-05-19T15:30:02;23.20;33.50
4103;DHT22;2065;49.790;9.620;2023-05-19T15:32:30;23.40;33.60
4103;DHT22;2065;49.790;9.620;2023-05-19T15:34:58;23.40;33.20
4103;DHT22;2065;49.790;9.620;2023-05-19T15:37:25;23.40;33.80
4103;DHT22;2065;49.790;9.620;2023-05-19T15:39:52;23.40;33.80
4103;DHT22;2065;49.790;9.620;2023-05-19T15:42:20;23.30;32.00
4103;DHT22;2065;49.790;9.620;2023-05-19T15:44:47;23.30;32.50
4103;DHT22;2065;49.790;9.620;2023-05-19T15:47:15;23.50;32.80
4103;DHT22;2065;49.790;9.620;2023-05-19T15:49:42;23.70;33.00
4103;DHT22;2065;49.790;9.620;2023-05-19T15:52:09;23.70;32.60
4103;DHT22;2065;49.790;9.620;2023-05-19T15:54:36;24.00;33.20
4103;DHT22;2065;49.790;9.620;2023-05-19T15:57:03;23.90;32.40
4103;DHT22;2065;49.790;9.620;2023-05-19T15:59:30;23.70;33.30
4103;DHT22;2065;49.790;9.620;2023-05-19T16:01:57;23.60;33.00
4103;DHT22;2065;49.790;9.620;2023-05-19T16:04:25;23.60;32.90
4103;DHT22;2065;49.790;9.620;2023-05-19T16:06:52;23.80;32.50
4103;DHT22;2065;49.790;9.620;2023-05-19T16:09:19;23.60;32.40
4103;DHT22;2065;49.790;9.620;2023-05-19T16:11:46;23.40;32.90
4103;DHT22;2065;49.790;9.620;2023-05-19T16:14:13;23.30;32.70
4103;DHT22;2065;49.790;9.620;2023-05-19T16:16:40;23.00;33.10